sensor_id;sensor_type;location;lat;lon;timestamp;pressure;altitude;pressure_sealevel;temperature;humidity
23321;BME280;33376;51.306;4.752;2022-07-03T00:01:09;101748.97;;;15.39;100.00
23321;BME280;33376;51.306;4.752;2022-07-03T00:03:35;101739.50;;;15.33;100.00
23321;BME280;33376;51.306;4.752;2022-07-03T00:06:00;101734.41;;;15.29;100.00
23321;BME280;33376;51.306;4.752;2022-07-03T00:08:25;101733.06;;;15.22;100.00
23321;BME280;33376;51.306;4.752;2022-07-03T00:10:50;101733.16;;;15.20;100.00
23321;BME280;33376;51.306;4.752;2022-07-03T00:13:16;101721.41;;;15.09;100.00
23321;BME280;33376;51.306;4.752;2022-07-03T00:15:41;101724.44;;;15.03;100.00
23321;BME280;33376;51.306;4.752;2022-07-03T00:18:06;101716.00;;;14.95;100.00
23321;BME280;33376;51.306;4.752;2022-07-03T00:20:34;101716.53;;;14.86;100.00
23321;BME280;33376;51.306;4.752;2022-07-03T00:23:04;101711.97;;;14.88;100.00
23321;BME280;33376;51.306;4.752;2022-07-03T00:25:31;101707.00;;;14.82;100.00
23321;BME280;33376;51.306;4.752;2022-07-03T00:27:57;101707.28;;;14.77;100.00
23321;BME280;33376;51.306;4.752;2022-07-03T00:30:22;101698.75;;;14.71;100.00
23321;BME280;33376;51.306;4.752;2022-07-03T00:32:47;101700.81;;;14.65;100.00
23321;BME280;33376;51.306;4.752;2022-07-03T00:35:17;101689.53;;;14.60;100.00
23321;BME280;33376;51.306;4.752;2022-07-03T00:37:42;101690.09;;;14.51;100.00
23321;BME280;33376;51.306;4.752;2022-07-03T00:40:07;101689.47;;;14.46;100.00
23321;BME280;33376;51.306;4.752;2022-07-03T00:42:34;101679.16;;;14.40;100.00
23321;BME280;33376;51.306;4.752;2022-07-03T00:45:01;101674.16;;;14.34;100.00
23321;BME280;33376;51.306;4.752;2022-07-03T00:47:27;101672.44;;;14.33;100.00
23321;BME280;33376;51.306;4.752;2022-07-03T00:49:53;101674.50;;;14.28;100.00
23321;BME280;33376;51.306;4.752;2022-07-03T00:52:20;101669.50;;;14.22;100.00
23321;BME280;33376;51.306;4.752;2022-07-03T00:54:55;101663.28;;;14.22;100.00
23321;BME280;33376;51.306;4.752;2022-07-03T00:57:21;101658.22;;;14.17;100.00
23321;BME280;33376;51.306;4.752;2022-07-03T00:59:47;101665.88;;;14.23;100.00
23321;BME280;33376;51.306;4.752;2022-07-03T01:02:15;101652.91;;;14.17;100.00
23321;BME280;33376;51.306;4.752;2022-07-03T01:04:51;101644.03;;;14.17;100.00
23321;BME280;33376;51.306;4.752;2022-07-03T01:07:29;101644.38;;;14.11;100.00
23321;BME280;33376;51.306;4.752;2022-07-03T01:10:07;101638.19;;;14.10;100.00
23321;BME280;33376;51.306;4.752;2022-07-03T01:12:40;101629.50;;;14.07;100.00
23321;BME280;33376;51.306;4.752;2022-07-03T01:15:11;101632.53;;;14.01;100.00
23321;BME280;33376;51.306;4.752;2022-07-03T01:17:41;101622.59;;;14.03;100.00
23321;BME280;33376;51.306;4.752;2022-07-03T01:20:09;101623.66;;;14.00;100.00
23321;BME280;33376;51.306;4.752;2022-07-03T01:22:37;101626.59;;;13.96;100.00
23321;BME280;33376;51.306;4.752;2022-07-03T01:27:57;101625.28;;;13.87;100.00
23321;BME280;33376;51.306;4.752;2022-07-03T01:30:29;101626.31;;;13.85;100.00
23321;BME280;33376;51.306;4.752;2022-07-03T01:32:57;101616.50;;;13.85;100.00
23321;BME280;33376;51.306;4.752;2022-07-03T01:35:26;101607.56;;;13.86;100.00
23321;BME280;33376;51.306;4.752;2022-07-03T01:37:52;101612.03;;;13.86;100.00
23321;BME280;33376;51.306;4.752;2022-07-03T01:40:19;101602.56;;;13.80;100.00
23321;BME280;33376;51.306;4.752;2022-07-03T01:42:46;101607.41;;;13.74;100.00
23321;BME280;33376;51.306;4.752;2022-07-03T01:45:14;101601.38;;;13.70;100.00
23321;BME280;33376;51.306;4.752;2022-07-03T01:47:40;101599.56;;;13.71;100.00
23321;BME280;33376;51.306;4.752;2022-07-03T01:50:07;101596.75;;;13.74;100.00
23321;BME280;33376;51.306;4.752;2022-07-03T01:52:32;101587.00;;;13.73;100.00
23321;BME280;33376;51.306;4.752;2022-07-03T01:54:59;101589.69;;;13.73;100.00
23321;BME280;33376;51.306;4.752;2022-07-03T01:57:25;101581.25;;;13.80;100.00
23321;BME280;33376;51.306;4.752;2022-07-03T02:00:01;101585.47;;;13.84;100.00
23321;BME280;33376;51.306;4.752;2022-07-03T02:02:29;101574.81;;;13.84;100.00
23321;BME280;33376;51.306;4.752;2022-07-03T02:04:59;101579.09;;;13.87;100.00
23321;BME280;33376;51.306;4.752;2022-07-03T02:07:32;101564.41;;;13.80;100.00
23321;BME280;33376;51.306;4.752;2022-07-03T02:10:04;101572.81;;;13.72;100.00
23321;BME280;33376;51.306;4.752;2022-07-03T02:12:40;101559.84;;;13.66;100.00
23321;BME280;33376;51.306;4.752;2022-07-03T02:15:09;101554.00;;;13.60;100.00
23321;BME280;33376;51.306;4.752;2022-07-03T02:17:41;101557.69;;;13.57;100.00
23321;BME280;33376;51.306;4.752;2022-07-03T02:20:07;101558.03;;;13.51;100.00
23321;BME280;33376;51.306;4.752;2022-07-03T02:22:34;101555.56;;;13.48;100.00
23321;BME280;33376;51.306;4.752;2022-07-03T02:25:04;101557.59;;;13.43;100.00
23321;BME280;33376;51.306;4.752;2022-07-03T02:28:04;101553.03;;;13.45;100.00
23321;BME280;33376;51.306;4.752;2022-07-03T02:30:22;101549.34;;;13.48;100.00
23321;BME280;33376;51.306;4.752;2022-07-03T02:32:48;101557.00;;;13.54;100.00
23321;BME280;33376;51.306;4.752;2022-07-03T02:35:33;101543.75;;;13.52;100.00
23321;BME280;33376;51.306;4.752;2022-07-03T02:40:39;101548.06;;;13.55;100.00
23321;BME280;33376;51.306;4.752;2022-07-03T02:45:49;101547.75;;;13.61;100.00
23321;BME280;33376;51.306;4.752;2022-07-03T02:48:22;101544.13;;;13.62;100.00
23321;BME280;33376;51.306;4.752;2022-07-03T02:50:50;101542.06;;;13.67;100.00
23321;BME280;33376;51.306;4.752;2022-07-03T02:54:02;101547.66;;;13.62;100.00
23321;BME280;33376;51.306;4.752;2022-07-03T02:56:07;101545.16;;;13.59;100.00
23321;BME280;33376;51.306;4.752;2022-07-03T03:01:34;101545.25;;;13.58;100.00
23321;BME280;33376;51.306;4.752;2022-07-03T03:04:18;101545.34;;;13.56;100.00
23321;BME280;33376;51.306;4.752;2022-07-03T03:06:47;101552.09;;;13.62;100.00
23321;BME280;33376;51.306;4.752;2022-07-03T03:09:19;101545.91;;;13.61;100.00
23321;BME280;33376;51.306;4.752;2022-07-03T03:11:45;101542.50;;;13.59;100.00
23321;BME280;33376;51.306;4.752;2022-07-03T03:14:12;101540.56;;;13.61;100.00
23321;BME280;33376;51.306;4.752;2022-07-03T03:16:45;101546.94;;;13.59;100.00
23321;BME280;33376;51.306;4.752;2022-07-03T03:19:11;101547.91;;;13.58;100.00
23321;BME280;33376;51.306;4.752;2022-07-03T03:21:37;101545.91;;;13.61;100.00
23321;BME280;33376;51.306;4.752;2022-07-03T03:24:07;101540.66;;;13.60;100.00
23321;BME280;33376;51.306;4.752;2022-07-03T03:26:33;101549.53;;;13.60;100.00
23321;BME280;33376;51.306;4.752;2022-07-03T03:28:58;101547.22;;;13.54;100.00
23321;BME280;33376;51.306;4.752;2022-07-03T03:31:24;101547.22;;;13.54;100.00
23321;BME280;33376;51.306;4.752;2022-07-03T03:33:50;101540.94;;;13.55;100.00
23321;BME280;33376;51.306;4.752;2022-07-03T03:36:16;101547.91;;;13.58;100.00
23321;BME280;33376;51.306;4.752;2022-07-03T03:38:42;101546.00;;;13.60;100.00
23321;BME280;33376;51.306;4.752;2022-07-03T03:41:08;101542.41;;;13.61;100.00
23321;BME280;33376;51.306;4.752;2022-07-03T03:43:34;101546.94;;;13.59;100.00
23321;BME280;33376;51.306;4.752;2022-07-03T03:45:59;101547.03;;;13.57;100.00
23321;BME280;33376;51.306;4.752;2022-07-03T03:48:28;101545.56;;;13.52;100.00
23321;BME280;33376;51.306;4.752;2022-07-03T03:50:54;101553.56;;;13.52;100.00
23321;BME280;33376;51.306;4.752;2022-07-03T03:53:19;101548.75;;;13.58;100.00
23321;BME280;33376;51.306;4.752;2022-07-03T03:56:02;101553.06;;;13.61;100.00
23321;BME280;33376;51.306;4.752;2022-07-03T03:58:29;101546.50;;;13.66;100.00
23321;BME280;33376;51.306;4.752;2022-07-03T04:00:55;101549.25;;;13.65;100.00
23321;BME280;33376;51.306;4.752;2022-07-03T04:03:20;101547.56;;;13.64;100.00
23321;BME280;33376;51.306;4.752;2022-07-03T04:05:46;101549.19;;;13.66;100.00
23321;BME280;33376;51.306;4.752;2022-07-03T04:08:11;101548.09;;;13.70;100.00
23321;BME280;33376;51.306;4.752;2022-07-03T04:10:38;101546.44;;;13.68;100.00
23321;BME280;33376;51.306;4.752;2022-07-03T04:13:03;101546.03;;;13.75;100.00
23321;BME280;33376;51.306;4.752;2022-07-03T04:15:28;101548.91;;;13.71;100.00
23321;BME280;33376;51.306;4.752;2022-07-03T04:17:53;101550.56;;;13.73;100.00
23321;BME280;33376;51.306;4.752;2022-07-03T04:20:19;101548.34;;;13.81;100.00
23321;BME280;33376;51.306;4.752;2022-07-03T04:22:44;101552.19;;;13.91;100.00
23321;BME280;33376;51.306;4.752;2022-07-03T04:25:09;101547.34;;;13.98;100.00
23321;BME280;33376;51.306;4.752;2022-07-03T04:27:34;101544.25;;;14.05;100.00
23321;BME280;33376;51.306;4.752;2022-07-03T04:30:00;101549.00;;;14.00;100.00
23321;BME280;33376;51.306;4.752;2022-07-03T04:32:25;101548.91;;;14.02;100.00
23321;BME280;33376;51.306;4.752;2022-07-03T04:34:50;101560.03;;;13.94;100.00
23321;BME280;33376;51.306;4.752;2022-07-03T04:37:15;101553.03;;;13.92;100.00
23321;BME280;33376;51.306;4.752;2022-07-03T04:39:41;101549.84;;;13.85;100.00
23321;BME280;33376;51.306;4.752;2022-07-03T04:42:06;101549.59;;;13.90;100.00
23321;BME280;33376;51.306;4.752;2022-07-03T04:44:31;101551.78;;;13.83;100.00
23321;BME280;33376;51.306;4.752;2022-07-03T04:46:56;101556.75;;;13.89;100.00
23321;BME280;33376;51.306;4.752;2022-07-03T04:49:21;101562.91;;;13.90;100.00
23321;BME280;33376;51.306;4.752;2022-07-03T04:51:47;101562.06;;;14.05;100.00
23321;BME280;33376;51.306;4.752;2022-07-03T04:54:12;101558.53;;;14.20;100.00
23321;BME280;33376;51.306;4.752;2022-07-03T04:56:37;101550.03;;;14.43;100.00
23321;BME280;33376;51.306;4.752;2022-07-03T04:59:02;101560.09;;;14.53;100.00
23321;BME280;33376;51.306;4.752;2022-07-03T05:01:28;101566.44;;;14.81;100.00
23321;BME280;33376;51.306;4.752;2022-07-03T05:03:53;101558.84;;;15.03;100.00
23321;BME280;33376;51.306;4.752;2022-07-03T05:06:18;101552.84;;;15.41;100.00
23321;BME280;33376;51.306;4.752;2022-07-03T05:08:43;101555.94;;;15.76;100.00
23321;BME280;33376;51.306;4.752;2022-07-03T05:11:09;101564.63;;;16.06;100.00
23321;BME280;33376;51.306;4.752;2022-07-03T05:13:34;101571.56;;;16.23;100.00
23321;BME280;33376;51.306;4.752;2022-07-03T05:15:59;101590.78;;;16.15;100.00
23321;BME280;33376;51.306;4.752;2022-07-03T05:18:24;101610.81;;;16.22;100.00
23321;BME280;33376;51.306;4.752;2022-07-03T05:20:50;101624.88;;;16.26;100.00
23321;BME280;33376;51.306;4.752;2022-07-03T05:23:15;101633.22;;;16.48;100.00
23321;BME280;33376;51.306;4.752;2022-07-03T05:25:40;101647.13;;;16.79;100.00
23321;BME280;33376;51.306;4.752;2022-07-03T05:28:05;101678.19;;;17.33;100.00
23321;BME280;33376;51.306;4.752;2022-07-03T05:30:31;101692.50;;;17.59;100.00
23321;BME280;33376;51.306;4.752;2022-07-03T05:32:56;101723.19;;;17.55;100.00
23321;BME280;33376;51.306;4.752;2022-07-03T05:35:21;101738.50;;;17.53;100.00
23321;BME280;33376;51.306;4.752;2022-07-03T05:37:47;101718.63;;;18.06;100.00
23321;BME280;33376;51.306;4.752;2022-07-03T05:40:12;101755.63;;;18.38;100.00
23321;BME280;33376;51.306;4.752;2022-07-03T05:42:37;101751.34;;;19.65;100.00
23321;BME280;33376;51.306;4.752;2022-07-03T05:45:03;101794.16;;;20.36;100.00
23321;BME280;33376;51.306;4.752;2022-07-03T05:47:28;101856.56;;;20.96;100.00
23321;BME280;33376;51.306;4.752;2022-07-03T05:49:54;101909.88;;;20.26;100.00
23321;BME280;33376;51.306;4.752;2022-07-03T05:52:19;101949.56;;;19.53;100.00
23321;BME280;33376;51.306;4.752;2022-07-03T05:54:44;101927.63;;;20.51;100.00
23321;BME280;33376;51.306;4.752;2022-07-03T05:57:10;101902.94;;;22.78;100.00
23321;BME280;33376;51.306;4.752;2022-07-03T05:59:35;101976.53;;;24.56;100.00
23321;BME280;33376;51.306;4.752;2022-07-03T06:02:00;102025.06;;;26.41;100.00
23321;BME280;33376;51.306;4.752;2022-07-03T06:04:26;102103.47;;;26.28;100.00
23321;BME280;33376;51.306;4.752;2022-07-03T06:06:51;102101.78;;;27.31;100.00
23321;BME280;33376;51.306;4.752;2022-07-03T06:09:16;102092.41;;;27.59;100.00
23321;BME280;33376;51.306;4.752;2022-07-03T06:11:42;102086.44;;;26.78;100.00
23321;BME280;33376;51.306;4.752;2022-07-03T06:14:07;102096.22;;;26.71;100.00
23321;BME280;33376;51.306;4.752;2022-07-03T06:16:32;102042.97;;;27.20;100.00
23321;BME280;33376;51.306;4.752;2022-07-03T06:18:58;102073.78;;;26.17;100.00
23321;BME280;33376;51.306;4.752;2022-07-03T06:21:23;102070.50;;;26.13;100.00
23321;BME280;33376;51.306;4.752;2022-07-03T06:23:49;102087.31;;;24.99;100.00
23321;BME280;33376;51.306;4.752;2022-07-03T06:26:14;102108.75;;;24.54;100.00
23321;BME280;33376;51.306;4.752;2022-07-03T06:28:40;102120.13;;;24.10;100.00
23321;BME280;33376;51.306;4.752;2022-07-03T06:31:05;102146.31;;;23.30;100.00
23321;BME280;33376;51.306;4.752;2022-07-03T06:33:30;102157.53;;;22.53;100.00
23321;BME280;33376;51.306;4.752;2022-07-03T06:35:55;102146.22;;;21.83;100.00
23321;BME280;33376;51.306;4.752;2022-07-03T06:38:21;102134.34;;;22.91;100.00
23321;BME280;33376;51.306;4.752;2022-07-03T06:40:46;102132.09;;;23.38;100.00
23321;BME280;33376;51.306;4.752;2022-07-03T06:43:11;102132.72;;;23.90;100.00
23321;BME280;33376;51.306;4.752;2022-07-03T06:45:36;102137.16;;;24.50;100.00
23321;BME280;33376;51.306;4.752;2022-07-03T06:48:02;102126.00;;;24.63;100.00
23321;BME280;33376;51.306;4.752;2022-07-03T06:50:27;102129.91;;;24.79;100.00
23321;BME280;33376;51.306;4.752;2022-07-03T06:52:52;102118.00;;;24.23;100.00
23321;BME280;33376;51.306;4.752;2022-07-03T06:55:17;102138.28;;;24.19;100.00
23321;BME280;33376;51.306;4.752;2022-07-03T06:57:43;102136.06;;;23.64;100.00
23321;BME280;33376;51.306;4.752;2022-07-03T07:00:08;102142.94;;;23.98;100.00
23321;BME280;33376;51.306;4.752;2022-07-03T07:02:33;102136.72;;;25.58;100.00
23321;BME280;33376;51.306;4.752;2022-07-03T07:04:59;102119.78;;;26.45;100.00
23321;BME280;33376;51.306;4.752;2022-07-03T07:07:24;102105.53;;;26.16;100.00
23321;BME280;33376;51.306;4.752;2022-07-03T07:09:49;102107.81;;;26.73;100.00
23321;BME280;33376;51.306;4.752;2022-07-03T07:12:15;102107.16;;;26.62;100.00
23321;BME280;33376;51.306;4.752;2022-07-03T07:14:40;102114.16;;;25.84;100.00
23321;BME280;33376;51.306;4.752;2022-07-03T07:17:05;102122.28;;;27.17;100.00
23321;BME280;33376;51.306;4.752;2022-07-03T07:19:30;102064.53;;;28.79;100.00
23321;BME280;33376;51.306;4.752;2022-07-03T07:21:56;102034.03;;;29.76;100.00
23321;BME280;33376;51.306;4.752;2022-07-03T07:24:21;102004.91;;;29.06;100.00
23321;BME280;33376;51.306;4.752;2022-07-03T07:26:46;102014.00;;;28.91;100.00
23321;BME280;33376;51.306;4.752;2022-07-03T07:29:12;102045.09;;;27.76;100.00
23321;BME280;33376;51.306;4.752;2022-07-03T07:31:37;102019.25;;;30.16;100.00
23321;BME280;33376;51.306;4.752;2022-07-03T07:34:02;101995.97;;;30.20;100.00
23321;BME280;33376;51.306;4.752;2022-07-03T07:36:29;101994.44;;;29.34;100.00
23321;BME280;33376;51.306;4.752;2022-07-03T07:38:54;101991.69;;;28.71;100.00
23321;BME280;33376;51.306;4.752;2022-07-03T07:41:20;102001.19;;;28.99;100.00
23321;BME280;33376;51.306;4.752;2022-07-03T07:43:45;102021.09;;;29.62;100.00
23321;BME280;33376;51.306;4.752;2022-07-03T07:46:10;101952.03;;;30.22;100.00
23321;BME280;33376;51.306;4.752;2022-07-03T07:48:36;101982.38;;;30.86;100.00
23321;BME280;33376;51.306;4.752;2022-07-03T07:51:01;101987.78;;;29.67;100.00
23321;BME280;33376;51.306;4.752;2022-07-03T07:53:26;102034.47;;;29.57;100.00
23321;BME280;33376;51.306;4.752;2022-07-03T07:55:52;101993.16;;;30.06;100.00
23321;BME280;33376;51.306;4.752;2022-07-03T07:58:17;102001.19;;;29.46;100.00
23321;BME280;33376;51.306;4.752;2022-07-03T08:00:42;102041.66;;;28.47;100.00
23321;BME280;33376;51.306;4.752;2022-07-03T08:03:29;102075.53;;;27.97;100.00
23321;BME280;33376;51.306;4.752;2022-07-03T08:06:13;102052.78;;;28.86;100.00
23321;BME280;33376;51.306;4.752;2022-07-03T08:08:38;102034.97;;;28.98;100.00
23321;BME280;33376;51.306;4.752;2022-07-03T08:11:03;102061.22;;;27.95;100.00
23321;BME280;33376;51.306;4.752;2022-07-03T08:13:28;102097.63;;;26.40;100.00
23321;BME280;33376;51.306;4.752;2022-07-03T08:15:53;102116.78;;;26.66;100.00
23321;BME280;33376;51.306;4.752;2022-07-03T08:18:19;102094.41;;;26.97;100.00
23321;BME280;33376;51.306;4.752;2022-07-03T08:20:44;102100.06;;;27.55;100.00
23321;BME280;33376;51.306;4.752;2022-07-03T08:23:09;102109.44;;;26.84;100.00
23321;BME280;33376;51.306;4.752;2022-07-03T08:25:35;102112.53;;;25.18;100.00
23321;BME280;33376;51.306;4.752;2022-07-03T08:28:00;102111.78;;;26.79;100.00
23321;BME280;33376;51.306;4.752;2022-07-03T08:30:26;102114.94;;;26.22;100.00
23321;BME280;33376;51.306;4.752;2022-07-03T08:32:51;102132.53;;;25.27;100.00
23321;BME280;33376;51.306;4.752;2022-07-03T08:35:17;102129.88;;;26.18;100.00
23321;BME280;33376;51.306;4.752;2022-07-03T08:37:43;102123.59;;;26.70;100.00
23321;BME280;33376;51.306;4.752;2022-07-03T08:40:12;102125.16;;;26.90;100.00
23321;BME280;33376;51.306;4.752;2022-07-03T08:42:38;102092.41;;;27.59;100.00
23321;BME280;33376;51.306;4.752;2022-07-03T08:45:05;102059.84;;;27.91;100.00
23321;BME280;33376;51.306;4.752;2022-07-03T08:47:32;102050.50;;;28.01;100.00
23321;BME280;33376;51.306;4.752;2022-07-03T08:49:58;102078.88;;;27.41;100.00
23321;BME280;33376;51.306;4.752;2022-07-03T08:52:24;102062.25;;;27.52;100.00
23321;BME280;33376;51.306;4.752;2022-07-03T08:54:51;102083.75;;;27.30;100.00
23321;BME280;33376;51.306;4.752;2022-07-03T08:57:16;102068.63;;;28.42;100.00
23321;BME280;33376;51.306;4.752;2022-07-03T08:59:41;102041.16;;;28.44;100.00
23321;BME280;33376;51.306;4.752;2022-07-03T09:02:07;102051.06;;;28.77;100.00
23321;BME280;33376;51.306;4.752;2022-07-03T09:04:32;102069.34;;;27.45;100.00
23321;BME280;33376;51.306;4.752;2022-07-03T09:06:58;102049.88;;;28.80;100.00
23321;BME280;33376;51.306;4.752;2022-07-03T09:09:23;102029.59;;;29.37;100.00
23321;BME280;33376;51.306;4.752;2022-07-03T09:11:49;102052.78;;;28.54;100.00
23321;BME280;33376;51.306;4.752;2022-07-03T09:14:15;102039.44;;;28.35;100.00
23321;BME280;33376;51.306;4.752;2022-07-03T09:16:42;102076.84;;;28.75;100.00
23321;BME280;33376;51.306;4.752;2022-07-03T09:19:07;102078.19;;;28.46;100.00
23321;BME280;33376;51.306;4.752;2022-07-03T09:21:39;102071.03;;;28.78;100.00
23321;BME280;33376;51.306;4.752;2022-07-03T09:24:06;102050.34;;;28.19;100.00
23321;BME280;33376;51.306;4.752;2022-07-03T09:26:32;102061.75;;;28.06;100.00
23321;BME280;33376;51.306;4.752;2022-07-03T09:28:57;102085.31;;;26.89;100.00
23321;BME280;33376;51.306;4.752;2022-07-03T09:31:24;102079.81;;;27.66;100.00
23321;BME280;33376;51.306;4.752;2022-07-03T09:36:43;102020.75;;;27.82;100.00
23321;BME280;33376;51.306;4.752;2022-07-03T09:39:25;102106.44;;;27.12;100.00
23321;BME280;33376;51.306;4.752;2022-07-03T09:41:52;102115.41;;;26.17;100.00
23321;BME280;33376;51.306;4.752;2022-07-03T09:44:36;102107.06;;;27.99;100.00
23321;BME280;33376;51.306;4.752;2022-07-03T09:47:05;102043.34;;;28.08;100.00
23321;BME280;33376;51.306;4.752;2022-07-03T09:52:25;102044.94;;;28.59;100.00
23321;BME280;33376;51.306;4.752;2022-07-03T09:54:50;102116.03;;;26.64;100.00
23321;BME280;33376;51.306;4.752;2022-07-03T09:57:15;102106.28;;;27.81;100.00
23321;BME280;33376;51.306;4.752;2022-07-03T09:59:41;102068.25;;;29.26;100.00
23321;BME280;33376;51.306;4.752;2022-07-03T10:02:07;102037.06;;;27.66;100.00
23321;BME280;33376;51.306;4.752;2022-07-03T10:04:33;102077.72;;;27.26;100.00
23321;BME280;33376;51.306;4.752;2022-07-03T10:06:59;102105.81;;;25.68;100.00
23321;BME280;33376;51.306;4.752;2022-07-03T10:09:25;102145.00;;;25.93;100.00
23321;BME280;33376;51.306;4.752;2022-07-03T10:11:52;102161.13;;;26.04;100.00
23321;BME280;33376;51.306;4.752;2022-07-03T10:14:18;102161.13;;;25.12;100.00
23321;BME280;33376;51.306;4.752;2022-07-03T10:16:44;102154.00;;;25.01;100.00
23321;BME280;33376;51.306;4.752;2022-07-03T10:19:11;102187.50;;;26.04;100.00
23321;BME280;33376;51.306;4.752;2022-07-03T10:21:37;102139.00;;;26.96;100.00
23321;BME280;33376;51.306;4.752;2022-07-03T10:24:03;102127.63;;;26.13;100.00
23321;BME280;33376;51.306;4.752;2022-07-03T10:26:30;102138.75;;;26.37;100.00
23321;BME280;33376;51.306;4.752;2022-07-03T10:28:55;102170.38;;;25.84;100.00
23321;BME280;33376;51.306;4.752;2022-07-03T10:31:23;102190.84;;;25.23;100.00
23321;BME280;33376;51.306;4.752;2022-07-03T10:33:49;102189.19;;;25.68;100.00
23321;BME280;33376;51.306;4.752;2022-07-03T10:36:15;102160.72;;;25.72;100.00
23321;BME280;33376;51.306;4.752;2022-07-03T10:38:41;102142.09;;;26.84;100.00
23321;BME280;33376;51.306;4.752;2022-07-03T10:41:30;102104.06;;;26.22;100.00
23321;BME280;33376;51.306;4.752;2022-07-03T10:44:17;102169.25;;;25.40;100.00
23321;BME280;33376;51.306;4.752;2022-07-03T10:47:01;102143.09;;;27.26;100.00
23321;BME280;33376;51.306;4.752;2022-07-03T10:49:26;102087.38;;;28.45;100.00
23321;BME280;33376;51.306;4.752;2022-07-03T10:51:52;102072.06;;;28.77;100.00
23321;BME280;33376;51.306;4.752;2022-07-03T10:54:19;102001.13;;;29.23;100.00
23321;BME280;33376;51.306;4.752;2022-07-03T11:02:16;102040.09;;;27.97;100.00
23321;BME280;33376;51.306;4.752;2022-07-03T11:07:32;102026.66;;;28.19;100.00
23321;BME280;33376;51.306;4.752;2022-07-03T11:20:37;102083.03;;;27.02;100.00
23321;BME280;33376;51.306;4.752;2022-07-03T11:23:19;102100.75;;;26.80;100.00
23321;BME280;33376;51.306;4.752;2022-07-03T11:25:49;102141.63;;;26.53;100.00
23321;BME280;33376;51.306;4.752;2022-07-03T11:33:45;102116.91;;;24.83;100.00
23321;BME280;33376;51.306;4.752;2022-07-03T11:38:36;102127.09;;;26.45;100.00
23321;BME280;33376;51.306;4.752;2022-07-03T11:41:03;102041.09;;;27.54;100.00
23321;BME280;33376;51.306;4.752;2022-07-03T11:43:31;101994.03;;;26.77;100.00
23321;BME280;33376;51.306;4.752;2022-07-03T11:45:56;102034.22;;;25.23;100.00
23321;BME280;33376;51.306;4.752;2022-07-03T11:48:22;102051.91;;;25.91;100.00
23321;BME280;33376;51.306;4.752;2022-07-03T11:50:48;102063.63;;;25.64;100.00
23321;BME280;33376;51.306;4.752;2022-07-03T11:53:14;102106.00;;;25.57;100.00
23321;BME280;33376;51.306;4.752;2022-07-03T11:56:22;102044.19;;;25.86;100.00
23321;BME280;33376;51.306;4.752;2022-07-03T12:01:07;101991.19;;;28.19;100.00
23321;BME280;33376;51.306;4.752;2022-07-03T12:03:32;101950.75;;;27.99;100.00
23321;BME280;33376;51.306;4.752;2022-07-03T12:05:58;101982.44;;;27.34;100.00
23321;BME280;33376;51.306;4.752;2022-07-03T12:08:24;102039.59;;;27.60;100.00
23321;BME280;33376;51.306;4.752;2022-07-03T12:10:49;101976.50;;;27.05;100.00
23321;BME280;33376;51.306;4.752;2022-07-03T12:13:21;102003.75;;;26.19;100.00
23321;BME280;33376;51.306;4.752;2022-07-03T12:15:47;102055.25;;;25.12;100.00
23321;BME280;33376;51.306;4.752;2022-07-03T12:18:13;102043.91;;;25.89;100.00
23321;BME280;33376;51.306;4.752;2022-07-03T12:20:38;102037.94;;;26.56;100.00
23321;BME280;33376;51.306;4.752;2022-07-03T12:23:03;102027.69;;;26.33;100.00
23321;BME280;33376;51.306;4.752;2022-07-03T12:25:29;102032.31;;;27.27;100.00
23321;BME280;33376;51.306;4.752;2022-07-03T12:27:54;102018.50;;;26.69;100.00
23321;BME280;33376;51.306;4.752;2022-07-03T12:30:20;102036.91;;;25.60;100.00
23321;BME280;33376;51.306;4.752;2022-07-03T12:32:52;102134.22;;;25.37;100.00
23321;BME280;33376;51.306;4.752;2022-07-03T12:35:21;102141.06;;;24.67;100.00
23321;BME280;33376;51.306;4.752;2022-07-03T12:37:46;102170.91;;;23.78;100.00
23321;BME280;33376;51.306;4.752;2022-07-03T12:40:12;102203.94;;;22.69;100.00
23321;BME280;33376;51.306;4.752;2022-07-03T12:42:44;102220.19;;;23.42;100.00
23321;BME280;33376;51.306;4.752;2022-07-03T12:45:13;102183.16;;;24.02;100.00
23321;BME280;33376;51.306;4.752;2022-07-03T12:47:39;102180.03;;;25.69;100.00
23321;BME280;33376;51.306;4.752;2022-07-03T12:50:05;102179.72;;;25.07;100.00
23321;BME280;33376;51.306;4.752;2022-07-03T12:52:32;102197.47;;;24.82;100.00
23321;BME280;33376;51.306;4.752;2022-07-03T12:54:57;102211.34;;;23.70;100.00
23321;BME280;33376;51.306;4.752;2022-07-03T12:57:23;102225.59;;;23.42;100.00
23321;BME280;33376;51.306;4.752;2022-07-03T13:00:08;102236.56;;;23.40;100.00
23321;BME280;33376;51.306;4.752;2022-07-03T13:02:34;102245.97;;;23.25;100.00
23321;BME280;33376;51.306;4.752;2022-07-03T13:05:01;102238.69;;;22.73;100.00
23321;BME280;33376;51.306;4.752;2022-07-03T13:07:30;102250.41;;;22.63;100.00
23321;BME280;33376;51.306;4.752;2022-07-03T13:09:58;102256.63;;;22.74;100.00
23321;BME280;33376;51.306;4.752;2022-07-03T13:12:24;102265.34;;;23.41;100.00
23321;BME280;33376;51.306;4.752;2022-07-03T13:14:56;102233.97;;;24.10;100.00
23321;BME280;33376;51.306;4.752;2022-07-03T13:17:21;102203.94;;;24.41;100.00
23321;BME280;33376;51.306;4.752;2022-07-03T13:19:46;102196.16;;;23.78;100.00
23321;BME280;33376;51.306;4.752;2022-07-03T13:22:11;102202.56;;;23.77;100.00
23321;BME280;33376;51.306;4.752;2022-07-03T13:24:36;102212.75;;;24.24;100.00
23321;BME280;33376;51.306;4.752;2022-07-03T13:27:02;102188.06;;;23.58;100.00